sensor_id;sensor_type;location;lat;lon;timestamp;temperature;humidity
68354;DHT22;55274;43.060;25.618;2023-07-09T00:00:51;19.30;99.90
68354;DHT22;55274;43.060;25.618;2023-07-09T00:03:18;19.30;99.90
68354;DHT22;55274;43.060;25.618;2023-07-09T00:05:47;19.30;99.90
68354;DHT22;55274;43.060;25.618;2023-07-09T00:08:28;19.30;99.90
68354;DHT22;55274;43.060;25.618;2023-07-09T00:10:58;19.30;99.90
68354;DHT22;55274;43.060;25.618;2023-07-09T00:13:25;19.30;99.90
68354;DHT22;55274;43.060;25.618;2023-07-09T00:16:00;19.30;99.90
68354;DHT22;55274;43.060;25.618;2023-07-09T00:18:26;19.30;99.90
68354;DHT22;55274;43.060;25.618;2023-07-09T00:20:52;19.30;99.90
68354;DHT22;55274;43.060;25.618;2023-07-09T00:23:18;19.30;99.90
68354;DHT22;55274;43.060;25.618;2023-07-09T00:25:46;19.30;99.90
68354;DHT22;55274;43.060;25.618;2023-07-09T00:28:14;19.30;99.90
68354;DHT22;55274;43.060;25.618;2023-07-09T00:30:40;19.30;99.90
68354;DHT22;55274;43.060;25.618;2023-07-09T00:33:13;19.30;99.90
68354;DHT22;55274;43.060;25.618;2023-07-09T00:35:45;19.30;99.90
68354;DHT22;55274;43.060;25.618;2023-07-09T00:38:21;19.30;99.90
68354;DHT22;55274;43.060;25.618;2023-07-09T00:40:58;19.30;99.90
68354;DHT22;55274;43.060;25.618;2023-07-09T00:43:29;19.30;99.90
68354;DHT22;55274;43.060;25.618;2023-07-09T00:48:42;19.30;99.90
68354;DHT22;55274;43.060;25.618;2023-07-09T00:51:14;19.40;99.90
68354;DHT22;55274;43.060;25.618;2023-07-09T00:53:42;19.40;99.90
68354;DHT22;55274;43.060;25.618;2023-07-09T00:56:14;19.40;99.90
68354;DHT22;55274;43.060;25.618;2023-07-09T00:58:43;19.30;99.90
68354;DHT22;55274;43.060;25.618;2023-07-09T01:01:16;19.30;99.90
68354;DHT22;55274;43.060;25.618;2023-07-09T01:03:49;19.30;99.90
68354;DHT22;55274;43.060;25.618;2023-07-09T01:06:21;19.20;99.90
68354;DHT22;55274;43.060;25.618;2023-07-09T01:08:49;19.30;99.90
68354;DHT22;55274;43.060;25.618;2023-07-09T01:11:20;19.30;99.90
68354;DHT22;55274;43.060;25.618;2023-07-09T01:13:52;19.30;99.90
68354;DHT22;55274;43.060;25.618;2023-07-09T01:16:19;19.30;99.90
68354;DHT22;55274;43.060;25.618;2023-07-09T01:18:46;19.30;99.90
68354;DHT22;55274;43.060;25.618;2023-07-09T01:21:12;19.20;99.90
68354;DHT22;55274;43.060;25.618;2023-07-09T01:23:41;19.20;99.90
68354;DHT22;55274;43.060;25.618;2023-07-09T01:26:11;19.20;99.90
68354;DHT22;55274;43.060;25.618;2023-07-09T01:28:37;19.20;99.90
68354;DHT22;55274;43.060;25.618;2023-07-09T01:31:03;19.20;99.90
68354;DHT22;55274;43.060;25.618;2023-07-09T01:33:30;19.10;99.90
68354;DHT22;55274;43.060;25.618;2023-07-09T01:35:56;19.10;99.90
68354;DHT22;55274;43.060;25.618;2023-07-09T01:38:26;19.10;99.90
68354;DHT22;55274;43.060;25.618;2023-07-09T01:40:59;19.10;99.90
68354;DHT22;55274;43.060;25.618;2023-07-09T01:43:25;19.10;99.90
68354;DHT22;55274;43.060;25.618;2023-07-09T01:45:51;19.00;99.90
68354;DHT22;55274;43.060;25.618;2023-07-09T01:48:18;19.00;99.90
68354;DHT22;55274;43.060;25.618;2023-07-09T01:50:46;19.00;99.90
68354;DHT22;55274;43.060;25.618;2023-07-09T01:53:13;19.00;99.90
68354;DHT22;55274;43.060;25.618;2023-07-09T01:55:40;19.00;99.90
68354;DHT22;55274;43.060;25.618;2023-07-09T01:58:06;19.00;99.90
68354;DHT22;55274;43.060;25.618;2023-07-09T02:00:34;19.00;99.90
68354;DHT22;55274;43.060;25.618;2023-07-09T02:03:03;19.00;99.90
68354;DHT22;55274;43.060;25.618;2023-07-09T02:05:33;19.00;99.90
68354;DHT22;55274;43.060;25.618;2023-07-09T02:07:59;19.00;99.90
68354;DHT22;55274;43.060;25.618;2023-07-09T02:10:25;18.90;99.90
68354;DHT22;55274;43.060;25.618;2023-07-09T02:12:51;18.90;99.90
68354;DHT22;55274;43.060;25.618;2023-07-09T02:15:17;18.90;99.90
68354;DHT22;55274;43.060;25.618;2023-07-09T02:17:43;18.90;99.90
68354;DHT22;55274;43.060;25.618;2023-07-09T02:20:10;18.80;99.90
68354;DHT22;55274;43.060;25.618;2023-07-09T02:22:37;18.80;99.90
68354;DHT22;55274;43.060;25.618;2023-07-09T02:25:04;18.80;99.90
68354;DHT22;55274;43.060;25.618;2023-07-09T02:27:31;18.80;99.90
68354;DHT22;55274;43.060;25.618;2023-07-09T02:29:57;18.80;99.90
68354;DHT22;55274;43.060;25.618;2023-07-09T02:32:25;18.70;99.90
68354;DHT22;55274;43.060;25.618;2023-07-09T02:34:53;18.60;99.90
68354;DHT22;55274;43.060;25.618;2023-07-09T02:37:21;18.60;99.90
68354;DHT22;55274;43.060;25.618;2023-07-09T02:39:47;18.60;99.90
68354;DHT22;55274;43.060;25.618;2023-07-09T02:42:14;18.60;99.90
68354;DHT22;55274;43.060;25.618;2023-07-09T02:44:41;18.60;99.90
68354;DHT22;55274;43.060;25.618;2023-07-09T02:47:07;18.60;99.90
68354;DHT22;55274;43.060;25.618;2023-07-09T02:49:34;18.60;99.90
68354;DHT22;55274;43.060;25.618;2023-07-09T02:51:59;18.60;99.90
68354;DHT22;55274;43.060;25.618;2023-07-09T02:54:25;18.60;99.90
68354;DHT22;55274;43.060;25.618;2023-07-09T02:56:51;18.60;99.90
68354;DHT22;55274;43.060;25.618;2023-07-09T02:59:17;18.60;99.90
68354;DHT22;55274;43.060;25.618;2023-07-09T03:01:43;18.60;99.90
68354;DHT22;55274;43.060;25.618;2023-07-09T03:04:09;18.60;99.90
68354;DHT22;55274;43.060;25.618;2023-07-09T03:06:36;18.60;99.90
68354;DHT22;55274;43.060;25.618;2023-07-09T03:09:05;18.50;99.90
68354;DHT22;55274;43.060;25.618;2023-07-09T03:11:33;18.50;99.90
68354;DHT22;55274;43.060;25.618;2023-07-09T03:14:00;18.50;99.90
68354;DHT22;55274;43.060;25.618;2023-07-09T03:16:27;18.50;99.90
68354;DHT22;55274;43.060;25.618;2023-07-09T03:18:54;18.50;99.90
68354;DHT22;55274;43.060;25.618;2023-07-09T03:21:21;18.60;99.90
68354;DHT22;55274;43.060;25.618;2023-07-09T03:23:47;18.50;99.90
68354;DHT22;55274;43.060;25.618;2023-07-09T03:26:13;18.50;99.90
68354;DHT22;55274;43.060;25.618;2023-07-09T03:28:38;18.50;99.90
68354;DHT22;55274;43.060;25.618;2023-07-09T03:31:04;18.60;99.90
68354;DHT22;55274;43.060;25.618;2023-07-09T03:33:30;18.50;99.90
68354;DHT22;55274;43.060;25.618;2023-07-09T03:35:56;18.50;99.90
68354;DHT22;55274;43.060;25.618;2023-07-09T03:38:22;18.40;99.90
68354;DHT22;55274;43.060;25.618;2023-07-09T03:40:54;18.40;99.90
68354;DHT22;55274;43.060;25.618;2023-07-09T03:43:21;18.40;99.90
68354;DHT22;55274;43.060;25.618;2023-07-09T03:45:47;18.50;99.90
68354;DHT22;55274;43.060;25.618;2023-07-09T03:48:14;18.50;99.90
68354;DHT22;55274;43.060;25.618;2023-07-09T03:50:41;18.40;99.90
68354;DHT22;55274;43.060;25.618;2023-07-09T03:53:07;18.50;99.90
68354;DHT22;55274;43.060;25.618;2023-07-09T03:55:33;18.50;99.90
68354;DHT22;55274;43.060;25.618;2023-07-09T03:57:59;18.50;99.90
68354;DHT22;55274;43.060;25.618;2023-07-09T04:00:25;18.50;99.90
68354;DHT22;55274;43.060;25.618;2023-07-09T04:02:51;18.50;99.90
68354;DHT22;55274;43.060;25.618;2023-07-09T04:05:17;18.50;99.90
68354;DHT22;55274;43.060;25.618;2023-07-09T04:07:44;18.50;99.90
68354;DHT22;55274;43.060;25.618;2023-07-09T04:10:10;18.50;99.90
68354;DHT22;55274;43.060;25.618;2023-07-09T04:12:36;18.50;99.90
68354;DHT22;55274;43.060;25.618;2023-07-09T04:15:05;18.60;99.90
68354;DHT22;55274;43.060;25.618;2023-07-09T04:17:31;18.60;99.90
68354;DHT22;55274;43.060;25.618;2023-07-09T04:19:57;18.80;99.90
68354;DHT22;55274;43.060;25.618;2023-07-09T04:22:23;18.80;99.90
68354;DHT22;55274;43.060;25.618;2023-07-09T04:24:49;18.90;99.90
68354;DHT22;55274;43.060;25.618;2023-07-09T04:27:15;18.90;99.90
68354;DHT22;55274;43.060;25.618;2023-07-09T04:29:41;18.90;99.90
68354;DHT22;55274;43.060;25.618;2023-07-09T04:32:13;19.00;99.90
68354;DHT22;55274;43.060;25.618;2023-07-09T04:34:39;19.00;99.90
68354;DHT22;55274;43.060;25.618;2023-07-09T04:37:06;19.00;99.90
68354;DHT22;55274;43.060;25.618;2023-07-09T04:39:33;19.10;99.90
68354;DHT22;55274;43.060;25.618;2023-07-09T04:41:59;19.00;99.90
68354;DHT22;55274;43.060;25.618;2023-07-09T04:44:24;19.10;99.90
68354;DHT22;55274;43.060;25.618;2023-07-09T04:46:50;19.10;99.90
68354;DHT22;55274;43.060;25.618;2023-07-09T04:49:16;19.10;99.90
68354;DHT22;55274;43.060;25.618;2023-07-09T04:51:42;19.00;99.90
68354;DHT22;55274;43.060;25.618;2023-07-09T04:54:08;19.10;99.90
68354;DHT22;55274;43.060;25.618;2023-07-09T04:56:34;19.10;99.90
68354;DHT22;55274;43.060;25.618;2023-07-09T04:58:59;19.10;99.90
68354;DHT22;55274;43.060;25.618;2023-07-09T05:01:25;19.20;99.90
68354;DHT22;55274;43.060;25.618;2023-07-09T05:03:51;19.10;99.90
68354;DHT22;55274;43.060;25.618;2023-07-09T05:06:17;19.10;99.90
68354;DHT22;55274;43.060;25.618;2023-07-09T05:08:42;19.10;99.90
68354;DHT22;55274;43.060;25.618;2023-07-09T05:11:09;19.10;99.90
68354;DHT22;55274;43.060;25.618;2023-07-09T05:13:36;19.20;99.90
68354;DHT22;55274;43.060;25.618;2023-07-09T05:16:02;19.30;99.90
68354;DHT22;55274;43.060;25.618;2023-07-09T05:18:28;19.40;99.90
68354;DHT22;55274;43.060;25.618;2023-07-09T05:20:55;19.50;99.90
68354;DHT22;55274;43.060;25.618;2023-07-09T05:23:23;19.60;99.90
68354;DHT22;55274;43.060;25.618;2023-07-09T05:25:55;19.50;99.90
68354;DHT22;55274;43.060;25.618;2023-07-09T05:28:21;19.70;99.90
68354;DHT22;55274;43.060;25.618;2023-07-09T05:30:46;19.80;99.90
68354;DHT22;55274;43.060;25.618;2023-07-09T05:33:12;20.00;99.90
68354;DHT22;55274;43.060;25.618;2023-07-09T05:35:38;20.20;99.90
68354;DHT22;55274;43.060;25.618;2023-07-09T05:38:04;20.60;99.90
68354;DHT22;55274;43.060;25.618;2023-07-09T05:40:29;21.00;99.90
68354;DHT22;55274;43.060;25.618;2023-07-09T05:42:55;21.80;99.90
68354;DHT22;55274;43.060;25.618;2023-07-09T05:45:21;22.20;99.90
68354;DHT22;55274;43.060;25.618;2023-07-09T05:47:47;22.50;99.90
68354;DHT22;55274;43.060;25.618;2023-07-09T05:50:12;22.80;99.90
68354;DHT22;55274;43.060;25.618;2023-07-09T05:52:38;23.10;99.90
68354;DHT22;55274;43.060;25.618;2023-07-09T05:55:04;23.40;99.90
68354;DHT22;55274;43.060;25.618;2023-07-09T05:57:30;23.80;99.90
68354;DHT22;55274;43.060;25.618;2023-07-09T05:59:56;24.20;99.90
68354;DHT22;55274;43.060;25.618;2023-07-09T06:02:22;24.70;99.90
68354;DHT22;55274;43.060;25.618;2023-07-09T06:04:48;25.20;99.90
68354;DHT22;55274;43.060;25.618;2023-07-09T06:07:15;25.70;99.90
68354;DHT22;55274;43.060;25.618;2023-07-09T06:09:41;26.20;97.50
68354;DHT22;55274;43.060;25.618;2023-07-09T06:12:08;26.20;94.80
68354;DHT22;55274;43.060;25.618;2023-07-09T06:14:34;26.40;93.60
68354;DHT22;55274;43.060;25.618;2023-07-09T06:17:00;26.70;91.20
68354;DHT22;55274;43.060;25.618;2023-07-09T06:19:27;26.70;90.30
68354;DHT22;55274;43.060;25.618;2023-07-09T06:21:52;26.90;90.10
68354;DHT22;55274;43.060;25.618;2023-07-09T06:24:18;27.10;89.70
68354;DHT22;55274;43.060;25.618;2023-07-09T06:26:44;27.30;88.40
68354;DHT22;55274;43.060;25.618;2023-07-09T06:29:10;27.40;87.90
68354;DHT22;55274;43.060;25.618;2023-07-09T06:31:36;27.50;86.30
68354;DHT22;55274;43.060;25.618;2023-07-09T06:34:03;27.50;87.70
68354;DHT22;55274;43.060;25.618;2023-07-09T06:36:29;27.70;86.30
68354;DHT22;55274;43.060;25.618;2023-07-09T06:38:55;27.90;84.90
68354;DHT22;55274;43.060;25.618;2023-07-09T06:41:21;28.10;85.20
68354;DHT22;55274;43.060;25.618;2023-07-09T06:43:47;28.50;81.60
68354;DHT22;55274;43.060;25.618;2023-07-09T06:46:14;28.70;82.90
68354;DHT22;55274;43.060;25.618;2023-07-09T06:48:40;28.80;79.60
68354;DHT22;55274;43.060;25.618;2023-07-09T06:51:06;29.00;79.10
68354;DHT22;55274;43.060;25.618;2023-07-09T06:53:32;29.00;78.10
68354;DHT22;55274;43.060;25.618;2023-07-09T06:55:58;28.80;77.10
68354;DHT22;55274;43.060;25.618;2023-07-09T06:58:27;29.00;77.30
68354;DHT22;55274;43.060;25.618;2023-07-09T07:00:57;29.10;75.70
68354;DHT22;55274;43.060;25.618;2023-07-09T07:03:24;29.20;77.50
68354;DHT22;55274;43.060;25.618;2023-07-09T07:05:51;29.10;76.30
68354;DHT22;55274;43.060;25.618;2023-07-09T07:08:20;29.20;75.00
68354;DHT22;55274;43.060;25.618;2023-07-09T07:10:48;29.20;75.60
68354;DHT22;55274;43.060;25.618;2023-07-09T07:13:14;29.20;73.60
68354;DHT22;55274;43.060;25.618;2023-07-09T07:15:40;29.50;74.80
68354;DHT22;55274;43.060;25.618;2023-07-09T07:18:07;29.70;69.50
68354;DHT22;55274;43.060;25.618;2023-07-09T07:20:33;29.80;70.40
68354;DHT22;55274;43.060;25.618;2023-07-09T07:23:00;30.10;70.00
68354;DHT22;55274;43.060;25.618;2023-07-09T07:25:26;30.40;68.30
68354;DHT22;55274;43.060;25.618;2023-07-09T07:27:55;30.50;65.60
68354;DHT22;55274;43.060;25.618;2023-07-09T07:30:21;30.60;63.80
68354;DHT22;55274;43.060;25.618;2023-07-09T07:32:48;30.70;65.70
68354;DHT22;55274;43.060;25.618;2023-07-09T07:35:14;30.80;63.20
68354;DHT22;55274;43.060;25.618;2023-07-09T07:37:41;30.70;61.30
68354;DHT22;55274;43.060;25.618;2023-07-09T07:40:08;30.90;61.90
68354;DHT22;55274;43.060;25.618;2023-07-09T07:42:35;30.80;60.70
68354;DHT22;55274;43.060;25.618;2023-07-09T07:45:02;30.90;61.80
68354;DHT22;55274;43.060;25.618;2023-07-09T07:47:29;31.00;58.50
68354;DHT22;55274;43.060;25.618;2023-07-09T07:49:56;31.00;57.50
68354;DHT22;55274;43.060;25.618;2023-07-09T07:52:22;31.00;57.90
68354;DHT22;55274;43.060;25.618;2023-07-09T07:54:49;31.00;57.10
68354;DHT22;55274;43.060;25.618;2023-07-09T07:57:15;31.10;56.20
68354;DHT22;55274;43.060;25.618;2023-07-09T07:59:41;30.40;53.10
68354;DHT22;55274;43.060;25.618;2023-07-09T08:02:18;31.10;53.30
68354;DHT22;55274;43.060;25.618;2023-07-09T08:04:48;31.40;52.70
68354;DHT22;55274;43.060;25.618;2023-07-09T08:07:22;31.60;54.70
68354;DHT22;55274;43.060;25.618;2023-07-09T08:09:57;31.40;54.70
68354;DHT22;55274;43.060;25.618;2023-07-09T08:12:38;31.50;52.00
68354;DHT22;55274;43.060;25.618;2023-07-09T08:15:07;31.70;51.10
68354;DHT22;55274;43.060;25.618;2023-07-09T08:17:32;32.00;49.90
68354;DHT22;55274;43.060;25.618;2023-07-09T08:19:59;32.10;49.70
68354;DHT22;55274;43.060;25.618;2023-07-09T08:22:24;32.20;49.20
68354;DHT22;55274;43.060;25.618;2023-07-09T08:24:53;32.40;46.90
68354;DHT22;55274;43.060;25.618;2023-07-09T08:27:19;32.60;49.20
68354;DHT22;55274;43.060;25.618;2023-07-09T08:29:46;32.60;46.50
68354;DHT22;55274;43.060;25.618;2023-07-09T08:32:13;32.60;47.10
68354;DHT22;55274;43.060;25.618;2023-07-09T08:34:40;32.70;45.70
68354;DHT22;55274;43.060;25.618;2023-07-09T08:37:07;32.90;45.80
68354;DHT22;55274;43.060;25.618;2023-07-09T08:39:34;33.10;45.70
68354;DHT22;55274;43.060;25.618;2023-07-09T08:42:23;33.40;47.20
68354;DHT22;55274;43.060;25.618;2023-07-09T08:45:09;33.50;44.80
68354;DHT22;55274;43.060;25.618;2023-07-09T08:50:15;33.00;46.00
68354;DHT22;55274;43.060;25.618;2023-07-09T08:52:43;33.10;45.50
68354;DHT22;55274;43.060;25.618;2023-07-09T08:55:12;33.00;47.00
68354;DHT22;55274;43.060;25.618;2023-07-09T08:57:48;33.20;47.30
68354;DHT22;55274;43.060;25.618;2023-07-09T09:00:26;33.40;46.20
68354;DHT22;55274;43.060;25.618;2023-07-09T09:03:07;33.50;43.30
68354;DHT22;55274;43.060;25.618;2023-07-09T09:05:39;33.40;44.00
68354;DHT22;55274;43.060;25.618;2023-07-09T09:08:34;33.40;46.20
68354;DHT22;55274;43.060;25.618;2023-07-09T09:13:53;33.50;44.90
68354;DHT22;55274;43.060;25.618;2023-07-09T09:16:30;33.50;45.20
68354;DHT22;55274;43.060;25.618;2023-07-09T09:18:59;33.30;46.40
68354;DHT22;55274;43.060;25.618;2023-07-09T09:21:32;33.50;45.50
68354;DHT22;55274;43.060;25.618;2023-07-09T09:24:16;33.70;46.80
68354;DHT22;55274;43.060;25.618;2023-07-09T09:26:44;34.00;45.30
68354;DHT22;55274;43.060;25.618;2023-07-09T09:29:15;34.20;45.10
68354;DHT22;55274;43.060;25.618;2023-07-09T09:31:45;34.20;44.00
68354;DHT22;55274;43.060;25.618;2023-07-09T09:34:21;34.00;44.90
68354;DHT22;55274;43.060;25.618;2023-07-09T09:36:47;34.30;46.80
68354;DHT22;55274;43.060;25.618;2023-07-09T09:39:13;34.40;45.50
68354;DHT22;55274;43.060;25.618;2023-07-09T09:41:39;34.30;44.30
68354;DHT22;55274;43.060;25.618;2023-07-09T09:44:05;34.20;45.20
68354;DHT22;55274;43.060;25.618;2023-07-09T09:46:42;34.30;44.20
68354;DHT22;55274;43.060;25.618;2023-07-09T09:49:09;34.50;44.10
68354;DHT22;55274;43.060;25.618;2023-07-09T09:51:39;34.60;44.90
68354;DHT22;55274;43.060;25.618;2023-07-09T09:54:19;33.90;44.90
68354;DHT22;55274;43.060;25.618;2023-07-09T09:56:45;34.10;46.70
68354;DHT22;55274;43.060;25.618;2023-07-09T09:59:21;33.40;46.10
68354;DHT22;55274;43.060;25.618;2023-07-09T10:01:47;33.70;45.70
68354;DHT22;55274;43.060;25.618;2023-07-09T10:04:21;34.20;44.30
68354;DHT22;55274;43.060;25.618;2023-07-09T10:06:51;33.60;44.30
68354;DHT22;55274;43.060;25.618;2023-07-09T10:12:48;33.40;45.80
68354;DHT22;55274;43.060;25.618;2023-07-09T10:18:02;33.40;46.60
68354;DHT22;55274;43.060;25.618;2023-07-09T10:20:48;33.30;47.60
68354;DHT22;55274;43.060;25.618;2023-07-09T10:23:27;33.60;46.00
68354;DHT22;55274;43.060;25.618;2023-07-09T10:26:23;33.90;45.20
68354;DHT22;55274;43.060;25.618;2023-07-09T10:34:39;33.90;44.70
68354;DHT22;55274;43.060;25.618;2023-07-09T10:39:42;33.80;44.50
68354;DHT22;55274;43.060;25.618;2023-07-09T10:42:40;34.20;45.70
68354;DHT22;55274;43.060;25.618;2023-07-09T10:47:44;33.90;43.80
68354;DHT22;55274;43.060;25.618;2023-07-09T10:50:18;33.70;43.00
68354;DHT22;55274;43.060;25.618;2023-07-09T10:52:51;33.50;46.10
68354;DHT22;55274;43.060;25.618;2023-07-09T10:55:33;33.70;43.80
68354;DHT22;55274;43.060;25.618;2023-07-09T10:58:04;34.20;45.10
68354;DHT22;55274;43.060;25.618;2023-07-09T11:00:36;34.30;44.50
68354;DHT22;55274;43.060;25.618;2023-07-09T11:03:19;34.30;44.50
68354;DHT22;55274;43.060;25.618;2023-07-09T11:05:49;34.40;43.30
68354;DHT22;55274;43.060;25.618;2023-07-09T11:08:20;34.10;43.80
68354;DHT22;55274;43.060;25.618;2023-07-09T11:10:54;33.80;43.70
68354;DHT22;55274;43.060;25.618;2023-07-09T11:13:43;34.30;44.90
68354;DHT22;55274;43.060;25.618;2023-07-09T11:16:16;34.20;42.90
68354;DHT22;55274;43.060;25.618;2023-07-09T11:18:55;33.50;43.90
68354;DHT22;55274;43.060;25.618;2023-07-09T11:21:21;32.90;46.20
68354;DHT22;55274;43.060;25.618;2023-07-09T11:26:32;33.60;43.50
68354;DHT22;55274;43.060;25.618;2023-07-09T11:31:41;33.60;39.60
68354;DHT22;55274;43.060;25.618;2023-07-09T11:36:34;34.10;40.50
68354;DHT22;55274;43.060;25.618;2023-07-09T11:39:01;34.30;38.60
68354;DHT22;55274;43.060;25.618;2023-07-09T11:46:31;34.60;39.10
68354;DHT22;55274;43.060;25.618;2023-07-09T11:48:58;34.20;38.00
68354;DHT22;55274;43.060;25.618;2023-07-09T11:51:37;33.90;40.30
68354;DHT22;55274;43.060;25.618;2023-07-09T11:54:04;33.60;40.00
68354;DHT22;55274;43.060;25.618;2023-07-09T11:56:30;33.70;41.30
68354;DHT22;55274;43.060;25.618;2023-07-09T11:58:58;33.80;40.70
68354;DHT22;55274;43.060;25.618;2023-07-09T12:01:33;33.80;39.20
68354;DHT22;55274;43.060;25.618;2023-07-09T12:03:59;33.70;38.30
68354;DHT22;55274;43.060;25.618;2023-07-09T12:06:31;33.50;38.00
68354;DHT22;55274;43.060;25.618;2023-07-09T12:08:59;33.60;39.10
68354;DHT22;55274;43.060;25.618;2023-07-09T12:11:29;33.70;39.60
68354;DHT22;55274;43.060;25.618;2023-07-09T12:14:01;33.90;38.80
68354;DHT22;55274;43.060;25.618;2023-07-09T12:16:35;34.00;40.30
68354;DHT22;55274;43.060;25.618;2023-07-09T12:19:01;34.00;40.10
68354;DHT22;55274;43.060;25.618;2023-07-09T12:21:28;34.10;40.30
68354;DHT22;55274;43.060;25.618;2023-07-09T12:23:56;34.20;40.00
68354;DHT22;55274;43.060;25.618;2023-07-09T12:26:22;34.30;39.60
68354;DHT22;55274;43.060;25.618;2023-07-09T12:28:52;34.40;40.80
68354;DHT22;55274;43.060;25.618;2023-07-09T12:31:25;34.30;39.80
68354;DHT22;55274;43.060;25.618;2023-07-09T12:33:54;34.20;40.20
68354;DHT22;55274;43.060;25.618;2023-07-09T12:36:20;34.20;39.70
68354;DHT22;55274;43.060;25.618;2023-07-09T12:38:49;34.00;39.70
68354;DHT22;55274;43.060;25.618;2023-07-09T12:41:26;33.90;40.40
68354;DHT22;55274;43.060;25.618;2023-07-09T12:43:53;33.80;39.30
68354;DHT22;55274;43.060;25.618;2023-07-09T12:46:21;33.90;40.30
68354;DHT22;55274;43.060;25.618;2023-07-09T12:48:48;33.80;40.50
68354;DHT22;55274;43.060;25.618;2023-07-09T12:51:19;33.70;40.20
68354;DHT22;55274;43.060;25.618;2023-07-09T12:53:46;33.80;40.90
68354;DHT22;55274;43.060;25.618;2023-07-09T12:56:15;33.90;40.30
68354;DHT22;55274;43.060;25.618;2023-07-09T12:58:42;33.70;40.40
68354;DHT22;55274;43.060;25.618;2023-07-09T13:01:16;33.60;41.10
68354;DHT22;55274;43.060;25.618;2023-07-09T13:03:55;33.70;40.30
68354;DHT22;55274;43.060;25.618;2023-07-09T13:06:35;33.40;41.70
68354;DHT22;55274;43.060;25.618;2023-07-09T13:09:12;33.20;41.70
68354;DHT22;55274;43.060;25.618;2023-07-09T13:11:39;33.40;42.80
68354;DHT22;55274;43.060;25.618;2023-07-09T13:14:20;33.20;42.80
68354;DHT22;55274;43.060;25.618;2023-07-09T13:16:46;32.90;42.30
68354;DHT22;55274;43.060;25.618;2023-07-09T13:19:12;32.80;43.30
68354;DHT22;55274;43.060;25.618;2023-07-09T13:21:40;32.70;45.00
68354;DHT22;55274;43.060;25.618;2023-07-09T13:24:35;32.70;43.20
68354;DHT22;55274;43.060;25.618;2023-07-09T13:27:01;32.90;43.50
68354;DHT22;55274;43.060;25.618;2023-07-09T13:29:27;32.50;42.90
68354;DHT22;55274;43.060;25.618;2023-07-09T13:31:54;32.30;42.40
68354;DHT22;55274;43.060;25.618;2023-07-09T13:34:25;32.60;42.40
68354;DHT22;55274;43.060;25.618;2023-07-09T13:36:53;32.60;41.80
68354;DHT22;55274;43.060;25.618;2023-07-09T13:39:20;32.50;42.30
68354;DHT22;55274;43.060;25.618;2023-07-09T13:41:48;32.30;41.80
68354;DHT22;55274;43.060;25.618;2023-07-09T13:46:42;32.10;43.20
68354;DHT22;55274;43.060;25.618;2023-07-09T13:49:13;32.00;42.80
68354;DHT22;55274;43.060;25.618;2023-07-09T13:51:41;32.10;43.70
68354;DHT22;55274;43.060;25.618;2023-07-09T13:54:22;32.20;41.70
68354;DHT22;55274;43.060;25.618;2023-07-09T13:56:49;32.30;41.80
68354;DHT22;55274;43.060;25.618;2023-07-09T13:59:19;32.10;41.50
68354;DHT22;55274;43.060;25.618;2023-07-09T14:01:46;32.20;42.10
68354;DHT22;55274;43.060;25.618;2023-07-09T14:04:15;32.30;43.20
68354;DHT22;55274;43.060;25.618;2023-07-09T14:06:41;32.40;42.00
68354;DHT22;55274;43.060;25.618;2023-07-09T14:09:09;32.40;42.30
68354;DHT22;55274;43.060;25.618;2023-07-09T14:11:42;32.40;42.40
68354;DHT22;55274;43.060;25.618;2023-07-09T14:14:24;32.50;42.10
68354;DHT22;55274;43.060;25.618;2023-07-09T14:16:51;32.50;42.10
68354;DHT22;55274;43.060;25.618;2023-07-09T14:19:20;32.30;42.20
68354;DHT22;55274;43.060;25.618;2023-07-09T14:21:48;32.30;41.70
68354;DHT22;55274;43.060;25.618;2023-07-09T14:26:47;32.10;42.30
68354;DHT22;55274;43.060;25.618;2023-07-09T14:29:14;32.00;43.00
68354;DHT22;55274;43.060;25.618;2023-07-09T14:31:41;32.00;42.90
68354;DHT22;55274;43.060;25.618;2023-07-09T14:34:29;32.00;43.80
68354;DHT22;55274;43.060;25.618;2023-07-09T14:36:59;32.00;44.10
68354;DHT22;55274;43.060;25.618;2023-07-09T14:39:27;32.10;43.40
68354;DHT22;55274;43.060;25.618;2023-07-09T14:41:53;31.80;42.70
68354;DHT22;55274;43.060;25.618;2023-07-09T14:44:26;31.80;43.90
68354;DHT22;55274;43.060;25.618;2023-07-09T14:46:54;31.80;43.50
68354;DHT22;55274;43.060;25.618;2023-07-09T14:49:21;31.70;44.30
68354;DHT22;55274;43.060;25.618;2023-07-09T14:51:49;31.80;44.50
68354;DHT22;55274;43.060;25.618;2023-07-09T14:54:20;31.70;42.70
68354;DHT22;55274;43.060;25.618;2023-07-09T14:56:48;31.60;43.70
68354;DHT22;55274;43.060;25.618;2023-07-09T14:59:14;31.60;45.00
68354;DHT22;55274;43.060;25.618;2023-07-09T15:01:40;31.60;45.00
68354;DHT22;55274;43.060;25.618;2023-07-09T15:06:48;31.60;44.30
68354;DHT22;55274;43.060;25.618;2023-07-09T15:09:14;31.50;44.20
68354;DHT22;55274;43.060;25.618;2023-07-09T15:11:40;31.50;44.40
68354;DHT22;55274;43.060;25.618;2023-07-09T15:14:10;31.40;44.20
68354;DHT22;55274;43.060;25.618;2023-07-09T15:16:36;31.20;44.10
68354;DHT22;55274;43.060;25.618;2023-07-09T15:19:08;31.20;45.30
68354;DHT22;55274;43.060;25.618;2023-07-09T15:21:37;31.20;47.00
68354;DHT22;55274;43.060;25.618;2023-07-09T15:24:03;31.20;46.40
68354;DHT22;55274;43.060;25.618;2023-07-09T15:26:30;31.20;47.40
68354;DHT22;55274;43.060;25.618;2023-07-09T15:28:56;31.20;46.80
68354;DHT22;55274;43.060;25.618;2023-07-09T15:31:22;31.20;47.40
68354;DHT22;55274;43.060;25.618;2023-07-09T15:33:47;31.10;46.90
68354;DHT22;55274;43.060;25.618;2023-07-09T15:36:13;31.10;48.30
68354;DHT22;55274;43.060;25.618;2023-07-09T15:38:40;31.00;47.60
68354;DHT22;55274;43.060;25.618;2023-07-09T15:41:16;30.90;46.00
68354;DHT22;55274;43.060;25.618;2023-07-09T15:43:43;31.00;47.50
68354;DHT22;55274;43.060;25.618;2023-07-09T15:46:16;31.00;47.80
68354;DHT22;55274;43.060;25.618;2023-07-09T15:48:44;30.90;47.70
68354;DHT22;55274;43.060;25.618;2023-07-09T15:51:10;30.90;48.80
68354;DHT22;55274;43.060;25.618;2023-07-09T15:53:36;30.90;49.40
68354;DHT22;55274;43.060;25.618;2023-07-09T15:56:22;30.90;48.60
68354;DHT22;55274;43.060;25.618;2023-07-09T15:58:50;30.90;50.20
68354;DHT22;55274;43.060;25.618;2023-07-09T16:01:19;30.90;50.10
68354;DHT22;55274;43.060;25.618;2023-07-09T16:03:50;30.80;50.10
68354;DHT22;55274;43.060;25.618;2023-07-09T16:06:17;30.80;50.10
68354;DHT22;55274;43.060;25.618;2023-07-09T16:08:44;30.80;50.90
68354;DHT22;55274;43.060;25.618;2023-07-09T16:11:17;30.60;51.50